Himawari 2 — JG5636 — position and weather

sailwx.info

Track history (hours):
 
Tides and Currents Weather Stations Pressure Air Temp Water Temp Dewpoint Dewpoint Depression Visibility Wind Speed Wind Dir Waves Ship Positions

Himawari 2

Last reported at 2014-Dec-17 17:33 UTC. Time now 2014-Dec-19 12:15 UTC.
Position N 35°07' E 139°45'.

Length 161 m; draft 6.5 m.

Type: Cargo ship. MMSI: 431100957.

Date/timePositionNaut miles runAvg speedWind from/ knotsBaromVisibWave heightAir tempDewpointWater temp
2014-Dec-17 17:33N 35°07' E 139°45'1312.8
2014-Dec-17 16:34N 35°20' E 139°43'1514.6
2014-Dec-17 15:33N 35°33' E 139°51'5 2.0
2014-Dec-17 13:03N 35°38' E 139°50'0 0.0
2014-Dec-17 00:13N 35°38' E 139°50'1 1.3
2014-Dec-16 23:33N 35°37' E 139°49'1111.5
2014-Dec-16 22:34N 35°26' E 139°48'1111.2
2014-Dec-16 21:33N 35°14' E 139°47'22 7.2
2014-Dec-16 18:29N 35°08' E 139°21'22616.2
2014-Dec-16 04:33N 34°05' E 134°58'2423.6
2014-Dec-16 03:32N 34°28' E 135°01'16 1.3
2014-Dec-15 15:23N 34°32' E 134°42'1720.7
2014-Dec-15 14:33N 34°37' E 135°01'1918.5
2014-Dec-15 13:33N 34°38' E 135°24'1 1.2
2014-Dec-15 12:33N 34°40' E 135°24'0 0.0
2014-Dec-15 11:33N 34°40' E 135°24'0 0.0
2014-Dec-15 10:33N 34°40' E 135°24'0 0.0
2014-Dec-15 09:27N 34°40' E 135°24'0 0.0
2014-Dec-15 08:27N 34°40' E 135°24'0 0.0
2014-Dec-15 07:33N 34°40' E 135°24'0 0.0
2014-Dec-15 06:33N 34°40' E 135°24'0 0.0
2014-Dec-15 05:27N 34°40' E 135°24'0 0.5
2014-Dec-15 04:33N 34°39' E 135°24'1818.4
2014-Dec-15 03:33N 34°26' E 135°09'2019.9
2014-Dec-15 02:33N 34°08' E 134°59'23814.9
2014-Dec-14 10:32N 35°05' E 139°41'1313.8
2014-Dec-14 09:33N 35°18' E 139°44'1414.0
2014-Dec-14 08:33N 35°31' E 139°51'7 6.6
2014-Dec-14 07:30N 35°38' E 139°50'0 0.0
2014-Dec-14 06:30N 35°38' E 139°50'0 0.0
2014-Dec-14 05:12N 35°38' E 139°50'0 0.0
2014-Dec-14 04:30N 35°38' E 139°50'6 6.2
2014-Dec-14 03:33N 35°32' E 139°52'1413.9
2014-Dec-14 02:33N 35°20' E 139°44'1413.3
2014-Dec-14 01:29N 35°06' E 139°46'  
2014-Dec-10 16:20N 34°57' E 140°08'2212.2
2014-Dec-10 14:33N 35°08' E 139°45'1313.4
2014-Dec-10 13:33N 35°21' E 139°42'1514.9
2014-Dec-10 12:33N 35°34' E 139°52'4 0.4
2014-Dec-10 01:11N 35°38' E 139°50'2 1.2
2014-Dec-09 23:34N 35°36' E 139°50'1514.7
2014-Dec-09 22:33N 35°22' E 139°45'1111.4
2014-Dec-09 21:33N 35°10' E 139°46'24818.9
2014-Dec-09 08:29N 33°54' E 135°00'2324.3
2014-Dec-09 07:33N 34°17' E 134°59'1919.2
2014-Dec-09 06:33N 34°36' E 134°57'17 1.3
2014-Dec-08 18:11N 34°31' E 134°38'1016.0
2014-Dec-08 17:33N 34°34' E 134°50'1313.4
2014-Dec-08 16:33N 34°36' E 135°06'1515.3
2014-Dec-08 15:33N 34°39' E 135°24'1 1.0
2014-Dec-08 14:28N 34°40' E 135°24'0 0.0
2014-Dec-08 13:28N 34°40' E 135°24'0 0.0
2014-Dec-08 12:28N 34°40' E 135°24'0 0.0
2014-Dec-08 11:10N 34°40' E 135°24'0 0.0
2014-Dec-08 10:10N 34°40' E 135°24'0 0.0
2014-Dec-08 09:28N 34°40' E 135°24'0 0.0
2014-Dec-08 08:22N 34°40' E 135°24'0 0.0
2014-Dec-08 07:22N 34°40' E 135°24'0 0.0
2014-Dec-08 06:28N 34°40' E 135°24'0 0.0
2014-Dec-08 05:28N 34°40' E 135°24'2 1.7
2014-Dec-08 04:33N 34°38' E 135°23'1818.4
2014-Dec-08 03:33N 34°25' E 135°08'1818.4
2014-Dec-08 02:33N 34°08' E 134°59'  
Track history (hours):
 
Tides and Currents Weather Stations Pressure Air Temp Water Temp Dewpoint Dewpoint Depression Visibility Wind Speed Wind Dir Waves Ship Positions

Himawari 2

Last reported at 2014-Dec-17 17:33 UTC. Time now 2014-Dec-19 12:15 UTC.
Position N 35°07' E 139°45'.

Length 161 m; draft 6.5 m.

Type: Cargo ship. MMSI: 431100957.

Date/timePositionNaut miles runAvg speedWind from/ knotsBaromVisibWave heightAir tempDewpointWater temp
2014-Dec-17 17:33N 35°07' E 139°45'1312.8
2014-Dec-17 16:34N 35°20' E 139°43'1514.6
2014-Dec-17 15:33N 35°33' E 139°51'5 2.0
2014-Dec-17 13:03N 35°38' E 139°50'0 0.0
2014-Dec-17 00:13N 35°38' E 139°50'1 1.3
2014-Dec-16 23:33N 35°37' E 139°49'1111.5
2014-Dec-16 22:34N 35°26' E 139°48'1111.2
2014-Dec-16 21:33N 35°14' E 139°47'22 7.2
2014-Dec-16 18:29N 35°08' E 139°21'22616.2
2014-Dec-16 04:33N 34°05' E 134°58'2423.6
2014-Dec-16 03:32N 34°28' E 135°01'16 1.3
2014-Dec-15 15:23N 34°32' E 134°42'1720.7
2014-Dec-15 14:33N 34°37' E 135°01'1918.5
2014-Dec-15 13:33N 34°38' E 135°24'1 1.2
2014-Dec-15 12:33N 34°40' E 135°24'0 0.0
2014-Dec-15 11:33N 34°40' E 135°24'0 0.0
2014-Dec-15 10:33N 34°40' E 135°24'0 0.0
2014-Dec-15 09:27N 34°40' E 135°24'0 0.0
2014-Dec-15 08:27N 34°40' E 135°24'0 0.0
2014-Dec-15 07:33N 34°40' E 135°24'0 0.0
2014-Dec-15 06:33N 34°40' E 135°24'0 0.0
2014-Dec-15 05:27N 34°40' E 135°24'0 0.5
2014-Dec-15 04:33N 34°39' E 135°24'1818.4
2014-Dec-15 03:33N 34°26' E 135°09'2019.9
2014-Dec-15 02:33N 34°08' E 134°59'23814.9
2014-Dec-14 10:32N 35°05' E 139°41'1313.8
2014-Dec-14 09:33N 35°18' E 139°44'1414.0
2014-Dec-14 08:33N 35°31' E 139°51'7 6.6
2014-Dec-14 07:30N 35°38' E 139°50'0 0.0
2014-Dec-14 06:30N 35°38' E 139°50'0 0.0
2014-Dec-14 05:12N 35°38' E 139°50'0 0.0
2014-Dec-14 04:30N 35°38' E 139°50'6 6.2
2014-Dec-14 03:33N 35°32' E 139°52'1413.9
2014-Dec-14 02:33N 35°20' E 139°44'1413.3
2014-Dec-14 01:29N 35°06' E 139°46'  
2014-Dec-10 16:20N 34°57' E 140°08'2212.2
2014-Dec-10 14:33N 35°08' E 139°45'1313.4
2014-Dec-10 13:33N 35°21' E 139°42'1514.9
2014-Dec-10 12:33N 35°34' E 139°52'4 0.4
2014-Dec-10 01:11N 35°38' E 139°50'2 1.2
2014-Dec-09 23:34N 35°36' E 139°50'1514.7
2014-Dec-09 22:33N 35°22' E 139°45'1111.4
2014-Dec-09 21:33N 35°10' E 139°46'24818.9
2014-Dec-09 08:29N 33°54' E 135°00'2324.3
2014-Dec-09 07:33N 34°17' E 134°59'1919.2
2014-Dec-09 06:33N 34°36' E 134°57'17 1.3
2014-Dec-08 18:11N 34°31' E 134°38'1016.0
2014-Dec-08 17:33N 34°34' E 134°50'1313.4
2014-Dec-08 16:33N 34°36' E 135°06'1515.3
2014-Dec-08 15:33N 34°39' E 135°24'1 1.0
2014-Dec-08 14:28N 34°40' E 135°24'0 0.0
2014-Dec-08 13:28N 34°40' E 135°24'0 0.0
2014-Dec-08 12:28N 34°40' E 135°24'0 0.0
2014-Dec-08 11:10N 34°40' E 135°24'0 0.0
2014-Dec-08 10:10N 34°40' E 135°24'0 0.0
2014-Dec-08 09:28N 34°40' E 135°24'0 0.0
2014-Dec-08 08:22N 34°40' E 135°24'0 0.0
2014-Dec-08 07:22N 34°40' E 135°24'0 0.0
2014-Dec-08 06:28N 34°40' E 135°24'0 0.0
2014-Dec-08 05:28N 34°40' E 135°24'2 1.7
2014-Dec-08 04:33N 34°38' E 135°23'1818.4
2014-Dec-08 03:33N 34°25' E 135°08'1818.4
2014-Dec-08 02:33N 34°08' E 134°59'  

Dump ship's entire track history